sensor_id;sensor_type;location;lat;lon;timestamp;pressure;altitude;pressure_sealevel;temperature;humidity
59289;BME280;45056;47.602;9.886;2022-12-18T00:00:59;93577.53;;;-4.55;59.85
59289;BME280;45056;47.602;9.886;2022-12-18T00:03:37;93579.88;;;-4.54;60.16
59289;BME280;45056;47.602;9.886;2022-12-18T00:06:24;93584.88;;;-4.52;60.27
59289;BME280;45056;47.602;9.886;2022-12-18T00:08:56;93585.19;;;-4.54;60.34
59289;BME280;45056;47.602;9.886;2022-12-18T00:11:32;93596.13;;;-4.55;59.90
59289;BME280;45056;47.602;9.886;2022-12-18T00:14:03;93588.50;;;-4.57;60.06
59289;BME280;45056;47.602;9.886;2022-12-18T00:16:35;93593.81;;;-4.57;59.73
59289;BME280;45056;47.602;9.886;2022-12-18T00:19:18;93589.94;;;-4.59;59.56
59289;BME280;45056;47.602;9.886;2022-12-18T00:21:58;93603.53;;;-4.61;59.76
59289;BME280;45056;47.602;9.886;2022-12-18T00:24:36;93609.31;;;-4.59;59.84
59289;BME280;45056;47.602;9.886;2022-12-18T00:27:14;93611.50;;;-4.61;59.81
59289;BME280;45056;47.602;9.886;2022-12-18T00:29:52;93601.22;;;-4.63;59.45
59289;BME280;45056;47.602;9.886;2022-12-18T00:32:30;93613.59;;;-4.67;59.57
59289;BME280;45056;47.602;9.886;2022-12-18T00:35:06;93614.25;;;-4.70;59.64
59289;BME280;45056;47.602;9.886;2022-12-18T00:37:39;93613.00;;;-4.72;59.72
59289;BME280;45056;47.602;9.886;2022-12-18T00:40:16;93619.78;;;-4.75;59.40
59289;BME280;45056;47.602;9.886;2022-12-18T00:42:48;93621.19;;;-4.78;59.23
59289;BME280;45056;47.602;9.886;2022-12-18T00:45:31;93620.44;;;-4.78;59.38
59289;BME280;45056;47.602;9.886;2022-12-18T00:48:06;93617.31;;;-4.80;59.54
59289;BME280;45056;47.602;9.886;2022-12-18T00:50:48;93620.28;;;-4.82;59.80
59289;BME280;45056;47.602;9.886;2022-12-18T00:53:17;93625.47;;;-4.85;59.65
59289;BME280;45056;47.602;9.886;2022-12-18T00:55:48;93628.47;;;-4.87;59.74
59289;BME280;45056;47.602;9.886;2022-12-18T00:58:29;93630.69;;;-4.89;59.47
59289;BME280;45056;47.602;9.886;2022-12-18T01:01:07;93628.69;;;-4.92;59.14
59289;BME280;45056;47.602;9.886;2022-12-18T01:03:48;93630.44;;;-4.96;59.09
59289;BME280;45056;47.602;9.886;2022-12-18T01:06:19;93625.13;;;-4.96;58.94
59289;BME280;45056;47.602;9.886;2022-12-18T01:09:00;93636.84;;;-4.97;59.12
59289;BME280;45056;47.602;9.886;2022-12-18T01:11:33;93634.94;;;-4.97;58.71
59289;BME280;45056;47.602;9.886;2022-12-18T01:14:08;93646.97;;;-4.99;58.95
59289;BME280;45056;47.602;9.886;2022-12-18T01:16:57;93651.38;;;-5.03;58.79
59289;BME280;45056;47.602;9.886;2022-12-18T01:19:27;93643.31;;;-5.07;58.88
59289;BME280;45056;47.602;9.886;2022-12-18T01:21:58;93647.38;;;-5.10;59.20
59289;BME280;45056;47.602;9.886;2022-12-18T01:24:33;93646.63;;;-5.10;59.38
59289;BME280;45056;47.602;9.886;2022-12-18T01:27:19;93646.78;;;-5.15;59.22
59289;BME280;45056;47.602;9.886;2022-12-18T01:29:51;93659.59;;;-5.17;59.19
59289;BME280;45056;47.602;9.886;2022-12-18T01:32:21;93663.69;;;-5.20;58.71
59289;BME280;45056;47.602;9.886;2022-12-18T01:34:57;93659.81;;;-5.23;58.73
59289;BME280;45056;47.602;9.886;2022-12-18T01:37:46;93660.91;;;-5.24;59.12
59289;BME280;45056;47.602;9.886;2022-12-18T01:40:17;93668.88;;;-5.24;59.09
59289;BME280;45056;47.602;9.886;2022-12-18T01:42:54;93664.56;;;-5.28;59.25
59289;BME280;45056;47.602;9.886;2022-12-18T01:45:28;93672.50;;;-5.28;59.09
59289;BME280;45056;47.602;9.886;2022-12-18T01:48:02;93671.72;;;-5.29;59.28
59289;BME280;45056;47.602;9.886;2022-12-18T01:53:29;93667.19;;;-5.28;58.99
59289;BME280;45056;47.602;9.886;2022-12-18T01:55:58;93661.44;;;-5.30;58.90
59289;BME280;45056;47.602;9.886;2022-12-18T01:58:37;93668.59;;;-5.31;59.13
59289;BME280;45056;47.602;9.886;2022-12-18T02:01:25;93663.31;;;-5.31;58.77
59289;BME280;45056;47.602;9.886;2022-12-18T02:04:25;93666.75;;;-5.30;59.19
59289;BME280;45056;47.602;9.886;2022-12-18T02:07:17;93673.13;;;-5.31;58.31
59289;BME280;45056;47.602;9.886;2022-12-18T02:10:10;93666.59;;;-5.34;58.63
59289;BME280;45056;47.602;9.886;2022-12-18T02:12:53;93665.06;;;-5.35;58.78
59289;BME280;45056;47.602;9.886;2022-12-18T02:15:51;93667.09;;;-5.41;58.93
59289;BME280;45056;47.602;9.886;2022-12-18T02:18:35;93668.84;;;-5.45;59.08
59289;BME280;45056;47.602;9.886;2022-12-18T02:21:34;93674.16;;;-5.45;59.09
59289;BME280;45056;47.602;9.886;2022-12-18T02:24:29;93668.84;;;-5.45;59.08
59289;BME280;45056;47.602;9.886;2022-12-18T02:27:18;93667.00;;;-5.44;58.47
59289;BME280;45056;47.602;9.886;2022-12-18T02:30:02;93675.56;;;-5.47;58.54
59289;BME280;45056;47.602;9.886;2022-12-18T02:32:49;93672.78;;;-5.51;58.54
59289;BME280;45056;47.602;9.886;2022-12-18T02:35:43;93683.25;;;-5.55;58.62
59289;BME280;45056;47.602;9.886;2022-12-18T02:38:18;93672.19;;;-5.57;58.94
59289;BME280;45056;47.602;9.886;2022-12-18T02:41:19;93664.56;;;-5.58;58.59
59289;BME280;45056;47.602;9.886;2022-12-18T02:44:00;93668.44;;;-5.56;58.63
59289;BME280;45056;47.602;9.886;2022-12-18T02:46:48;93669.88;;;-5.58;58.66
59289;BME280;45056;47.602;9.886;2022-12-18T02:49:29;93672.06;;;-5.60;58.52
59289;BME280;45056;47.602;9.886;2022-12-18T02:52:13;93672.06;;;-5.60;58.73
59289;BME280;45056;47.602;9.886;2022-12-18T02:54:57;93668.19;;;-5.63;59.28
59289;BME280;45056;47.602;9.886;2022-12-18T02:57:53;93660.53;;;-5.65;58.66
59289;BME280;45056;47.602;9.886;2022-12-18T03:00:41;93662.41;;;-5.65;58.50
59289;BME280;45056;47.602;9.886;2022-12-18T03:03:50;93666.47;;;-5.68;58.16
59289;BME280;45056;47.602;9.886;2022-12-18T03:09:48;93662.59;;;-5.70;58.47
59289;BME280;45056;47.602;9.886;2022-12-18T03:13:20;93662.47;;;-5.74;58.55
59289;BME280;45056;47.602;9.886;2022-12-18T03:16:07;93661.41;;;-5.82;58.43
59289;BME280;45056;47.602;9.886;2022-12-18T03:19:16;93657.97;;;-5.82;58.86
59289;BME280;45056;47.602;9.886;2022-12-18T03:22:10;93666.69;;;-5.82;58.73
59289;BME280;45056;47.602;9.886;2022-12-18T03:24:54;93662.50;;;-5.83;58.51
59289;BME280;45056;47.602;9.886;2022-12-18T03:27:52;93665.94;;;-5.82;58.53
59289;BME280;45056;47.602;9.886;2022-12-18T03:31:00;93678.09;;;-5.81;58.72
59289;BME280;45056;47.602;9.886;2022-12-18T03:33:55;93668.59;;;-5.82;58.26
59289;BME280;45056;47.602;9.886;2022-12-18T03:37:01;93668.59;;;-5.82;58.54
59289;BME280;45056;47.602;9.886;2022-12-18T03:39:46;93676.22;;;-5.81;58.58
59289;BME280;45056;47.602;9.886;2022-12-18T03:42:22;93673.25;;;-5.79;58.71
59289;BME280;45056;47.602;9.886;2022-12-18T03:45:05;93675.09;;;-5.80;58.43
59289;BME280;45056;47.602;9.886;2022-12-18T03:47:50;93668.78;;;-5.87;58.30
59289;BME280;45056;47.602;9.886;2022-12-18T03:50:37;93664.72;;;-5.94;58.30
59289;BME280;45056;47.602;9.886;2022-12-18T03:57:52;93684.84;;;-5.92;58.88
59289;BME280;45056;47.602;9.886;2022-12-18T04:00:22;93683.59;;;-5.95;58.96
59289;BME280;45056;47.602;9.886;2022-12-18T04:02:55;93688.44;;;-5.97;58.61
59289;BME280;45056;47.602;9.886;2022-12-18T04:05:27;93684.56;;;-6.00;58.37
59289;BME280;45056;47.602;9.886;2022-12-18T04:07:57;93694.06;;;-5.99;58.42
59289;BME280;45056;47.602;9.886;2022-12-18T04:10:26;93696.06;;;-5.96;58.79
59289;BME280;45056;47.602;9.886;2022-12-18T04:12:56;93690.16;;;-5.92;59.04
59289;BME280;45056;47.602;9.886;2022-12-18T04:15:25;93682.97;;;-5.92;58.75
59289;BME280;45056;47.602;9.886;2022-12-18T04:17:54;93696.53;;;-5.94;58.85
59289;BME280;45056;47.602;9.886;2022-12-18T04:20:22;93701.53;;;-5.92;58.70
59289;BME280;45056;47.602;9.886;2022-12-18T04:22:50;93705.88;;;-5.87;59.06
59289;BME280;45056;47.602;9.886;2022-12-18T04:25:18;93701.34;;;-5.87;58.57
59289;BME280;45056;47.602;9.886;2022-12-18T04:27:47;93704.78;;;-5.86;58.59
59289;BME280;45056;47.602;9.886;2022-12-18T04:30:15;93713.50;;;-5.86;58.63
59289;BME280;45056;47.602;9.886;2022-12-18T04:32:43;93715.06;;;-5.85;58.55
59289;BME280;45056;47.602;9.886;2022-12-18T04:35:12;93704.16;;;-5.83;58.87
59289;BME280;45056;47.602;9.886;2022-12-18T04:37:40;93703.50;;;-5.80;59.22
59289;BME280;45056;47.602;9.886;2022-12-18T04:40:09;93705.53;;;-5.77;59.36
59289;BME280;45056;47.602;9.886;2022-12-18T04:42:39;93713.94;;;-5.75;59.13
59289;BME280;45056;47.602;9.886;2022-12-18T04:45:08;93714.38;;;-5.73;58.95
59289;BME280;45056;47.602;9.886;2022-12-18T04:47:36;93711.09;;;-5.70;59.19
59289;BME280;45056;47.602;9.886;2022-12-18T04:50:05;93711.25;;;-5.66;59.50
59289;BME280;45056;47.602;9.886;2022-12-18T04:52:35;93706.41;;;-5.64;59.21
59289;BME280;45056;47.602;9.886;2022-12-18T04:55:04;93705.00;;;-5.61;59.06
59289;BME280;45056;47.602;9.886;2022-12-18T04:57:33;93719.00;;;-5.61;58.94
59289;BME280;45056;47.602;9.886;2022-12-18T05:00:01;93708.72;;;-5.62;59.24
59289;BME280;45056;47.602;9.886;2022-12-18T05:02:30;93715.13;;;-5.63;59.18
59289;BME280;45056;47.602;9.886;2022-12-18T05:04:58;93725.25;;;-5.66;59.68
59289;BME280;45056;47.602;9.886;2022-12-18T05:07:26;93726.38;;;-5.67;59.54
59289;BME280;45056;47.602;9.886;2022-12-18T05:09:56;93731.66;;;-5.67;59.48
59289;BME280;45056;47.602;9.886;2022-12-18T05:12:24;93732.47;;;-5.66;59.46
59289;BME280;45056;47.602;9.886;2022-12-18T05:14:52;93730.91;;;-5.67;58.97
59289;BME280;45056;47.602;9.886;2022-12-18T05:17:20;93737.59;;;-5.70;58.90
59289;BME280;45056;47.602;9.886;2022-12-18T05:19:48;93735.59;;;-5.73;59.31
59289;BME280;45056;47.602;9.886;2022-12-18T05:22:16;93743.53;;;-5.73;59.15
59289;BME280;45056;47.602;9.886;2022-12-18T05:24:44;93739.34;;;-5.74;59.47
59289;BME280;45056;47.602;9.886;2022-12-18T05:27:14;93739.69;;;-5.75;59.36
59289;BME280;45056;47.602;9.886;2022-12-18T05:29:42;93748.41;;;-5.75;59.37
59289;BME280;45056;47.602;9.886;2022-12-18T05:32:10;93757.13;;;-5.74;59.49
59289;BME280;45056;47.602;9.886;2022-12-18T05:34:38;93751.84;;;-5.74;59.19
59289;BME280;45056;47.602;9.886;2022-12-18T05:37:06;93743.09;;;-5.75;59.19
59289;BME280;45056;47.602;9.886;2022-12-18T05:39:35;93746.06;;;-5.76;59.22
59289;BME280;45056;47.602;9.886;2022-12-18T05:42:03;93747.16;;;-5.77;59.54
59289;BME280;45056;47.602;9.886;2022-12-18T05:44:32;93756.19;;;-5.79;59.49
59289;BME280;45056;47.602;9.886;2022-12-18T05:47:00;93760.72;;;-5.79;59.34
59289;BME280;45056;47.602;9.886;2022-12-18T05:49:28;93758.38;;;-5.81;59.20
59289;BME280;45056;47.602;9.886;2022-12-18T05:51:56;93758.72;;;-5.82;59.01
59289;BME280;45056;47.602;9.886;2022-12-18T05:54:26;93762.75;;;-5.85;59.23
59289;BME280;45056;47.602;9.886;2022-12-18T05:56:54;93767.31;;;-5.85;58.96
59289;BME280;45056;47.602;9.886;2022-12-18T05:59:23;93762.63;;;-5.88;58.96
59289;BME280;45056;47.602;9.886;2022-12-18T06:01:53;93770.13;;;-5.90;59.07
59289;BME280;45056;47.602;9.886;2022-12-18T06:04:21;93761.72;;;-5.92;58.97
59289;BME280;45056;47.602;9.886;2022-12-18T06:06:49;93757.03;;;-5.96;58.60
59289;BME280;45056;47.602;9.886;2022-12-18T06:09:17;93772.00;;;-6.00;58.47
59289;BME280;45056;47.602;9.886;2022-12-18T06:11:45;93765.81;;;-6.04;58.89
59289;BME280;45056;47.602;9.886;2022-12-18T06:14:13;93762.41;;;-6.04;58.60
59289;BME280;45056;47.602;9.886;2022-12-18T06:16:43;93765.81;;;-6.04;59.12
59289;BME280;45056;47.602;9.886;2022-12-18T06:19:15;93772.22;;;-6.05;59.82
59289;BME280;45056;47.602;9.886;2022-12-18T06:21:44;93777.50;;;-6.05;60.55
59289;BME280;45056;47.602;9.886;2022-12-18T06:24:12;93776.88;;;-6.02;60.79
59289;BME280;45056;47.602;9.886;2022-12-18T06:26:40;93773.13;;;-6.01;60.67
59289;BME280;45056;47.602;9.886;2022-12-18T06:29:08;93776.53;;;-6.00;60.77
59289;BME280;45056;47.602;9.886;2022-12-18T06:31:36;93773.13;;;-6.01;60.96
59289;BME280;45056;47.602;9.886;2022-12-18T06:34:04;93782.59;;;-6.00;61.30
59289;BME280;45056;47.602;9.886;2022-12-18T06:36:34;93786.50;;;-5.97;60.50
59289;BME280;45056;47.602;9.886;2022-12-18T06:39:02;93783.41;;;-5.99;60.44
59289;BME280;45056;47.602;9.886;2022-12-18T06:41:30;93779.19;;;-6.00;60.55
59289;BME280;45056;47.602;9.886;2022-12-18T06:43:58;93781.72;;;-6.04;60.66
59289;BME280;45056;47.602;9.886;2022-12-18T06:46:26;93786.88;;;-6.07;60.73
59289;BME280;45056;47.602;9.886;2022-12-18T06:48:54;93777.97;;;-6.12;61.01
59289;BME280;45056;47.602;9.886;2022-12-18T06:51:23;93778.16;;;-6.17;60.91
59289;BME280;45056;47.602;9.886;2022-12-18T06:53:53;93777.69;;;-6.19;60.47
59289;BME280;45056;47.602;9.886;2022-12-18T06:56:22;93779.09;;;-6.21;60.09
59289;BME280;45056;47.602;9.886;2022-12-18T06:58:50;93781.44;;;-6.29;59.82
59289;BME280;45056;47.602;9.886;2022-12-18T07:01:18;93785.50;;;-6.31;60.24
59289;BME280;45056;47.602;9.886;2022-12-18T07:03:47;93797.50;;;-6.34;59.94
59289;BME280;45056;47.602;9.886;2022-12-18T07:06:22;93803.88;;;-6.35;60.04
59289;BME280;45056;47.602;9.886;2022-12-18T07:08:54;93808.72;;;-6.37;59.79
59289;BME280;45056;47.602;9.886;2022-12-18T07:11:23;93806.84;;;-6.36;59.62
59289;BME280;45056;47.602;9.886;2022-12-18T07:13:52;93806.53;;;-6.35;59.82
59289;BME280;45056;47.602;9.886;2022-12-18T07:16:21;93808.72;;;-6.37;59.22
59289;BME280;45056;47.602;9.886;2022-12-18T07:18:49;93809.81;;;-6.47;59.07
59289;BME280;45056;47.602;9.886;2022-12-18T07:21:19;93815.44;;;-6.48;59.13
59289;BME280;45056;47.602;9.886;2022-12-18T07:23:48;93813.88;;;-6.49;59.51
59289;BME280;45056;47.602;9.886;2022-12-18T07:26:20;93819.63;;;-6.47;59.68
59289;BME280;45056;47.602;9.886;2022-12-18T07:28:49;93823.38;;;-6.48;59.37
59289;BME280;45056;47.602;9.886;2022-12-18T07:31:20;93834.72;;;-6.48;59.49
59289;BME280;45056;47.602;9.886;2022-12-18T07:33:49;93837.38;;;-6.48;59.58
59289;BME280;45056;47.602;9.886;2022-12-18T07:36:19;93834.44;;;-6.46;59.42
59289;BME280;45056;47.602;9.886;2022-12-18T07:38:48;93836.91;;;-6.41;59.23
59289;BME280;45056;47.602;9.886;2022-12-18T07:41:20;93841.13;;;-6.40;59.43
59289;BME280;45056;47.602;9.886;2022-12-18T07:43:48;93838.94;;;-6.29;59.63
59289;BME280;45056;47.602;9.886;2022-12-18T07:46:17;93843.00;;;-6.05;59.30
59289;BME280;45056;47.602;9.886;2022-12-18T07:48:45;93846.47;;;-5.75;58.76
59289;BME280;45056;47.602;9.886;2022-12-18T07:51:14;93853.88;;;-5.42;57.89
59289;BME280;45056;47.602;9.886;2022-12-18T07:53:42;93855.81;;;-5.12;57.47
59289;BME280;45056;47.602;9.886;2022-12-18T07:56:12;93858.94;;;-4.80;56.60
59289;BME280;45056;47.602;9.886;2022-12-18T07:58:41;93854.22;;;-4.53;55.32
59289;BME280;45056;47.602;9.886;2022-12-18T08:01:11;93855.19;;;-4.28;54.52
59289;BME280;45056;47.602;9.886;2022-12-18T08:03:40;93853.59;;;-4.08;54.17
59289;BME280;45056;47.602;9.886;2022-12-18T08:06:09;93860.00;;;-3.87;53.52
59289;BME280;45056;47.602;9.886;2022-12-18T08:08:38;93855.63;;;-3.71;53.21
59289;BME280;45056;47.602;9.886;2022-12-18T08:11:07;93862.53;;;-3.57;52.62
59289;BME280;45056;47.602;9.886;2022-12-18T08:13:35;93850.25;;;-3.50;52.48
59289;BME280;45056;47.602;9.886;2022-12-18T08:16:07;93847.91;;;-3.51;52.82
59289;BME280;45056;47.602;9.886;2022-12-18T08:18:36;93848.78;;;-3.59;53.39
59289;BME280;45056;47.602;9.886;2022-12-18T08:21:09;93851.22;;;-3.67;53.59
59289;BME280;45056;47.602;9.886;2022-12-18T08:23:38;93857.84;;;-3.73;53.39
59289;BME280;45056;47.602;9.886;2022-12-18T08:26:07;93853.50;;;-3.78;53.90
59289;BME280;45056;47.602;9.886;2022-12-18T08:28:35;93848.50;;;-3.79;54.10
59289;BME280;45056;47.602;9.886;2022-12-18T08:31:06;93847.28;;;-3.82;54.36
59289;BME280;45056;47.602;9.886;2022-12-18T08:33:36;93843.97;;;-3.79;54.54
59289;BME280;45056;47.602;9.886;2022-12-18T08:36:06;93848.75;;;-3.72;54.50
59289;BME280;45056;47.602;9.886;2022-12-18T08:38:35;93850.88;;;-3.65;54.52
59289;BME280;45056;47.602;9.886;2022-12-18T08:41:06;93844.88;;;-3.62;54.90
59289;BME280;45056;47.602;9.886;2022-12-18T08:43:36;93840.50;;;-3.58;54.91
59289;BME280;45056;47.602;9.886;2022-12-18T08:46:25;93844.81;;;-3.53;54.98
59289;BME280;45056;47.602;9.886;2022-12-18T08:48:54;93846.81;;;-3.50;54.99
59289;BME280;45056;47.602;9.886;2022-12-18T08:51:23;93842.38;;;-3.46;55.34
59289;BME280;45056;47.602;9.886;2022-12-18T08:53:51;93843.63;;;-3.43;55.39
59289;BME280;45056;47.602;9.886;2022-12-18T08:56:19;93856.25;;;-3.40;55.38
59289;BME280;45056;47.602;9.886;2022-12-18T08:58:47;93852.19;;;-3.38;55.96
59289;BME280;45056;47.602;9.886;2022-12-18T09:01:20;93856.03;;;-3.35;56.09
59289;BME280;45056;47.602;9.886;2022-12-18T09:03:51;93860.69;;;-3.32;56.03
59289;BME280;45056;47.602;9.886;2022-12-18T09:06:21;93859.28;;;-3.29;56.43
59289;BME280;45056;47.602;9.886;2022-12-18T09:08:50;93860.03;;;-3.29;56.37
59289;BME280;45056;47.602;9.886;2022-12-18T09:11:21;93870.81;;;-3.25;56.68
59289;BME280;45056;47.602;9.886;2022-12-18T09:13:51;93864.38;;;-3.24;57.26
59289;BME280;45056;47.602;9.886;2022-12-18T09:16:21;93867.50;;;-3.22;57.43
59289;BME280;45056;47.602;9.886;2022-12-18T09:18:51;93879.59;;;-3.25;58.21
59289;BME280;45056;47.602;9.886;2022-12-18T09:21:27;93873.81;;;-3.27;58.63
59289;BME280;45056;47.602;9.886;2022-12-18T09:23:57;93875.69;;;-3.27;58.38
59289;BME280;45056;47.602;9.886;2022-12-18T09:26:26;93866.59;;;-3.26;59.06
59289;BME280;45056;47.602;9.886;2022-12-18T09:28:54;93867.38;;;-3.26;59.50
59289;BME280;45056;47.602;9.886;2022-12-18T09:31:24;93864.25;;;-3.28;59.44
59289;BME280;45056;47.602;9.886;2022-12-18T09:33:54;93865.38;;;-3.29;59.76
59289;BME280;45056;47.602;9.886;2022-12-18T09:36:22;93861.72;;;-3.24;60.45
59289;BME280;45056;47.602;9.886;2022-12-18T09:38:50;93864.16;;;-3.19;60.51
59289;BME280;45056;47.602;9.886;2022-12-18T09:41:37;93855.50;;;-3.16;60.72
59289;BME280;45056;47.602;9.886;2022-12-18T09:44:16;93859.84;;;-3.11;60.67
59289;BME280;45056;47.602;9.886;2022-12-18T09:46:59;93851.19;;;-3.08;60.82
59289;BME280;45056;47.602;9.886;2022-12-18T09:49:42;93850.09;;;-3.07;60.98
59289;BME280;45056;47.602;9.886;2022-12-18T09:52:18;93844.44;;;-3.06;60.63
59289;BME280;45056;47.602;9.886;2022-12-18T09:54:56;93843.44;;;-3.01;60.75
59289;BME280;45056;47.602;9.886;2022-12-18T09:57:32;93850.44;;;-2.96;60.97
59289;BME280;45056;47.602;9.886;2022-12-18T10:00:16;93849.09;;;-2.90;60.73
59289;BME280;45056;47.602;9.886;2022-12-18T10:02:50;93853.88;;;-2.83;61.11
59289;BME280;45056;47.602;9.886;2022-12-18T10:05:33;93846.44;;;-2.78;61.00
59289;BME280;45056;47.602;9.886;2022-12-18T10:08:14;93840.09;;;-2.73;61.10
59289;BME280;45056;47.602;9.886;2022-12-18T10:10:51;93846.44;;;-2.65;61.23
59289;BME280;45056;47.602;9.886;2022-12-18T10:13:27;93838.19;;;-2.60;61.52
59289;BME280;45056;47.602;9.886;2022-12-18T10:16:12;93842.31;;;-2.50;61.66
59289;BME280;45056;47.602;9.886;2022-12-18T10:19:01;93838.84;;;-2.38;61.65
59289;BME280;45056;47.602;9.886;2022-12-18T10:21:50;93841.91;;;-2.24;60.98
59289;BME280;45056;47.602;9.886;2022-12-18T10:24:33;93841.97;;;-2.08;60.97
59289;BME280;45056;47.602;9.886;2022-12-18T10:27:14;93845.13;;;-1.90;60.70
59289;BME280;45056;47.602;9.886;2022-12-18T10:29:45;93841.88;;;-1.70;60.95
59289;BME280;45056;47.602;9.886;2022-12-18T10:32:17;93839.31;;;-1.51;60.45
59289;BME280;45056;47.602;9.886;2022-12-18T10:34:48;93839.00;;;-1.33;59.95
59289;BME280;45056;47.602;9.886;2022-12-18T10:37:20;93840.97;;;-1.14;59.47
59289;BME280;45056;47.602;9.886;2022-12-18T10:40:08;93837.72;;;-0.91;59.49
59289;BME280;45056;47.602;9.886;2022-12-18T10:42:39;93840.44;;;-0.71;59.14
59289;BME280;45056;47.602;9.886;2022-12-18T10:45:11;93850.34;;;-0.56;58.76
59289;BME280;45056;47.602;9.886;2022-12-18T10:47:44;93842.56;;;-0.45;58.24
59289;BME280;45056;47.602;9.886;2022-12-18T10:50:26;93833.34;;;-0.48;57.60
59289;BME280;45056;47.602;9.886;2022-12-18T10:53:01;93837.13;;;-0.49;58.25
59289;BME280;45056;47.602;9.886;2022-12-18T10:55:34;93839.09;;;-0.46;57.55
59289;BME280;45056;47.602;9.886;2022-12-18T10:58:24;93843.91;;;-0.35;57.67
59289;BME280;45056;47.602;9.886;2022-12-18T11:01:07;93844.94;;;-0.24;57.01
59289;BME280;45056;47.602;9.886;2022-12-18T11:03:39;93841.28;;;-0.16;56.59
59289;BME280;45056;47.602;9.886;2022-12-18T11:06:11;93836.06;;;-0.08;56.68
59289;BME280;45056;47.602;9.886;2022-12-18T11:08:46;93840.59;;;0.07;56.84
59289;BME280;45056;47.602;9.886;2022-12-18T11:11:26;93847.56;;;0.32;56.94
59289;BME280;45056;47.602;9.886;2022-12-18T11:14:03;93852.66;;;0.60;56.67
59289;BME280;45056;47.602;9.886;2022-12-18T11:16:36;93856.97;;;0.88;56.25
59289;BME280;45056;47.602;9.886;2022-12-18T11:19:29;93851.22;;;1.09;55.31
59289;BME280;45056;47.602;9.886;2022-12-18T11:22:16;93857.22;;;1.26;54.87
59289;BME280;45056;47.602;9.886;2022-12-18T11:24:57;93853.09;;;1.32;53.81
59289;BME280;45056;47.602;9.886;2022-12-18T11:27:29;93845.72;;;1.25;53.47
59289;BME280;45056;47.602;9.886;2022-12-18T11:30:08;93842.19;;;1.21;53.94
59289;BME280;45056;47.602;9.886;2022-12-18T11:32:40;93844.63;;;1.30;53.88
59289;BME280;45056;47.602;9.886;2022-12-18T11:35:19;93853.16;;;1.36;53.98
59289;BME280;45056;47.602;9.886;2022-12-18T11:37:58;93845.28;;;1.47;53.73
59289;BME280;45056;47.602;9.886;2022-12-18T11:40:36;93840.09;;;1.61;53.66
59289;BME280;45056;47.602;9.886;2022-12-18T11:43:19;93850.22;;;1.71;53.12
59289;BME280;45056;47.602;9.886;2022-12-18T11:46:03;93841.06;;;1.76;52.33
59289;BME280;45056;47.602;9.886;2022-12-18T11:48:44;93846.50;;;1.80;52.57
59289;BME280;45056;47.602;9.886;2022-12-18T11:51:26;93847.38;;;1.87;52.16
59289;BME280;45056;47.602;9.886;2022-12-18T11:54:01;93835.59;;;1.96;51.78
59289;BME280;45056;47.602;9.886;2022-12-18T11:56:47;93844.53;;;2.04;52.12
59289;BME280;45056;47.602;9.886;2022-12-18T11:59:30;93848.38;;;2.06;51.67
59289;BME280;45056;47.602;9.886;2022-12-18T12:02:26;93840.69;;;2.05;51.53
59289;BME280;45056;47.602;9.886;2022-12-18T12:05:25;93830.63;;;1.98;51.64
59289;BME280;45056;47.602;9.886;2022-12-18T12:08:14;93821.44;;;1.99;51.99
59289;BME280;45056;47.602;9.886;2022-12-18T12:10:58;93816.84;;;1.99;50.98
59289;BME280;45056;47.602;9.886;2022-12-18T12:13:46;93811.47;;;1.99;51.29
59289;BME280;45056;47.602;9.886;2022-12-18T12:16:37;93810.38;;;2.04;50.70
59289;BME280;45056;47.602;9.886;2022-12-18T12:19:28;93809.91;;;1.95;50.93
59289;BME280;45056;47.602;9.886;2022-12-18T12:22:14;93803.47;;;1.72;50.86
59289;BME280;45056;47.602;9.886;2022-12-18T12:25:06;93806.22;;;1.49;51.09
59289;BME280;45056;47.602;9.886;2022-12-18T12:27:57;93801.94;;;1.18;52.14
59289;BME280;45056;47.602;9.886;2022-12-18T12:30:52;93798.19;;;0.99;52.82
59289;BME280;45056;47.602;9.886;2022-12-18T12:33:40;93802.50;;;1.04;53.68
59289;BME280;45056;47.602;9.886;2022-12-18T12:36:29;93797.81;;;1.24;53.50
59289;BME280;45056;47.602;9.886;2022-12-18T12:39:10;93796.03;;;1.32;52.10
59289;BME280;45056;47.602;9.886;2022-12-18T12:41:46;93797.25;;;1.11;52.41
59289;BME280;45056;47.602;9.886;2022-12-18T12:44:34;93793.06;;;0.90;53.14
59289;BME280;45056;47.602;9.886;2022-12-18T12:47:16;93788.81;;;0.85;53.46
59289;BME280;45056;47.602;9.886;2022-12-18T12:49:49;93783.88;;;0.88;53.54
59289;BME280;45056;47.602;9.886;2022-12-18T12:52:28;93780.81;;;0.89;53.13
59289;BME280;45056;47.602;9.886;2022-12-18T12:55:05;93767.53;;;0.96;53.47
59289;BME280;45056;47.602;9.886;2022-12-18T12:57:45;93764.66;;;1.09;53.59
59289;BME280;45056;47.602;9.886;2022-12-18T13:00:18;93765.06;;;1.11;53.03
59289;BME280;45056;47.602;9.886;2022-12-18T13:02:54;93757.34;;;1.06;53.30
59289;BME280;45056;47.602;9.886;2022-12-18T13:05:38;93762.94;;;0.97;53.53
59289;BME280;45056;47.602;9.886;2022-12-18T13:08:12;93781.22;;;0.91;53.73
59289;BME280;45056;47.602;9.886;2022-12-18T13:10:51;93780.81;;;0.89;54.06
59289;BME280;45056;47.602;9.886;2022-12-18T13:13:57;93782.34;;;0.90;54.27
59289;BME280;45056;47.602;9.886;2022-12-18T13:16:26;93778.13;;;0.89;54.49
59289;BME280;45056;47.602;9.886;2022-12-18T13:18:57;93773.91;;;0.88;54.61
59289;BME280;45056;47.602;9.886;2022-12-18T13:21:29;93780.09;;;0.92;54.41
59289;BME280;45056;47.602;9.886;2022-12-18T13:24:15;93777.84;;;0.94;54.28
59289;BME280;45056;47.602;9.886;2022-12-18T13:26:52;93779.44;;;0.99;54.28
59289;BME280;45056;47.602;9.886;2022-12-18T13:29:44;93776.41;;;1.00;54.49
59289;BME280;45056;47.602;9.886;2022-12-18T13:32:21;93775.63;;;1.00;54.75
59289;BME280;45056;47.602;9.886;2022-12-18T13:38:21;93784.81;;;0.99;54.76
59289;BME280;45056;47.602;9.886;2022-12-18T13:40:56;93787.84;;;0.97;54.62
59289;BME280;45056;47.602;9.886;2022-12-18T13:43:37;93788.56;;;0.94;54.71
59289;BME280;45056;47.602;9.886;2022-12-18T13:46:21;93802.25;;;0.89;54.95
59289;BME280;45056;47.602;9.886;2022-12-18T13:48:55;93805.31;;;0.88;54.71
59289;BME280;45056;47.602;9.886;2022-12-18T13:51:31;93806.06;;;0.88;54.76
59289;BME280;45056;47.602;9.886;2022-12-18T13:54:06;93802.63;;;0.88;54.80
59289;BME280;45056;47.602;9.886;2022-12-18T13:56:48;93808.75;;;0.88;54.98
59289;BME280;45056;47.602;9.886;2022-12-18T13:59:19;93809.13;;;0.86;55.53
59289;BME280;45056;47.602;9.886;2022-12-18T14:01:53;93807.50;;;0.82;55.27
59289;BME280;45056;47.602;9.886;2022-12-18T14:04:26;93799.75;;;0.77;55.68